This is the latest recevied weather packets stored in our database for station/object K0VSC-1. If no packets are shown the sender has not sent any weather packets the latest 1 day(s).
| Time | Temp. | Humidity | Pressure | Rain* | Wind** | Luminosity | Snow |
|---|---|---|---|---|---|---|---|
| 1778051884 | 0° C | 68% | 1015.3 hPa | 0 mm | - | 0 W/m² | - |
| 1778051584 | 0° C | 68% | 1015.3 hPa | 0 mm | - | 0 W/m² | - |
| 1778051284 | 0° C | 68% | 1015.2 hPa | 0 mm | - | 0 W/m² | - |
| 1778050384 | 0° C | 67% | 1015.3 hPa | 0 mm | - | 0 W/m² | - |
| 1778050084 | 0° C | 66% | 1015.3 hPa | 0 mm | - | 0 W/m² | - |
| 1778049484 | 0° C | 66% | 1015.3 hPa | 0 mm | - | 0 W/m² | - |
| 1778048884 | 0° C | 66% | 1015.5 hPa | 0 mm | - | 0 W/m² | - |
| 1778048284 | 0° C | 66% | 1015.5 hPa | 0 mm | - | 0 W/m² | - |
| 1778046784 | 0° C | 66% | 1015.4 hPa | 0 mm | - | 0 W/m² | - |
| 1778046184 | 0.56° C | 65% | 1015.4 hPa | 0 mm | - | 0 W/m² | - |
| 1778045584 | 0.56° C | 65% | 1015.3 hPa | 0 mm | - | 0 W/m² | - |
| 1778044984 | 0.56° C | 63% | 1015.2 hPa | 0 mm | - | 0 W/m² | - |
| 1778044684 | 0.56° C | 63% | 1015.1 hPa | 0 mm | - | 0 W/m² | - |
| 1778044084 | 0.56° C | 63% | 1015 hPa | 0 mm | - | 0 W/m² | - |
| 1778041984 | 1.11° C | 62% | 1014.7 hPa | 0 mm | - | 0 W/m² | - |
| 1778040784 | 1.11° C | 62% | 1014.9 hPa | 0 mm | - | 0 W/m² | - |
| 1778039584 | 1.11° C | 61% | 1014.8 hPa | 0 mm | - | 0 W/m² | - |
| 1778038084 | 1.67° C | 60% | 1014.6 hPa | 0 mm | - | 0 W/m² | - |
| 1778037784 | 1.67° C | 60% | 1014.6 hPa | 0 mm | - | 0 W/m² | - |
| 1778036017 | 2.22° C | 57% | 1014.6 hPa | 0 mm | - | 0 W/m² | - |
| 1778035384 | 2.22° C | 57% | 1014.6 hPa | 0 mm | - | 0 W/m² | - |
| 1778035084 | 2.78° C | 56% | 1014.3 hPa | 0 mm | - | 0 W/m² | - |
| 1778034848 | 2.78° C | 56% | 1014.3 hPa | 0 mm | - | 0 W/m² | - |
| 1778031785 | 3.33° C | 54% | 1013.6 hPa | 0 mm | - | 0 W/m² | - |
| 1778031485 | 3.33° C | 53% | 1013.5 hPa | 0 mm | - | 0 W/m² | - |
* Rain latest hour (hover to see other rain measurements)
** Current wind speed in m/s (hover to see current wind gust speed)